Terminal Aerodrome Forecast
Issued by NWS Twin Cities, MN

Home | Current Version | Previous Version | Text Only | Print | Product List | Glossary Off
Versions: 1 2 3 4 5 6 7 8 9 10 11 12 13 14 15 16 17 18 19 20 21

000
FTUS43 KMPX 060414 AAB
TAFSTC
TAF AMD
KSTC 060414Z 0604/0624 18010KT 4SM -TSRA BR BKN035CB OVC060
      TEMPO 0604/0607 3/4SM +TSRA BR OVC008CB
     FM060900 03008KT 2SM SHRA BR BKN006 OVC012
     FM061600 03012KT 5SM -SHRA BR SCT006 OVC020
     FM062000 01012G18KT P6SM SCT012 BKN035=

USA.gov is the U.S. government's official web portal to all federal, state and local government web resources and services.